createdAt,value
2023-04-10T00:02:26.765Z,5.57
2023-04-10T00:04:54.450Z,5.55
2023-04-10T00:07:23.297Z,5.52
2023-04-10T00:09:50.883Z,5.45
2023-04-10T00:12:18.435Z,5.23
2023-04-10T00:14:46.184Z,5.03
2023-04-10T00:17:13.718Z,5.08
2023-04-10T00:19:41.176Z,5.23
2023-04-10T00:22:08.635Z,5.42
2023-04-10T00:24:37.479Z,5.50
2023-04-10T00:27:04.969Z,5.41
2023-04-10T00:29:32.460Z,5.29
2023-04-10T00:31:59.958Z,4.93
2023-04-10T00:34:27.456Z,5.32
2023-04-10T00:36:54.906Z,5.37
2023-04-10T00:39:22.371Z,5.42
2023-04-10T00:41:51.163Z,5.46
2023-04-10T00:44:18.650Z,5.56
2023-04-10T00:46:46.176Z,5.83
2023-04-10T00:49:14.267Z,6.02
2023-04-10T00:51:43.599Z,6.09
2023-04-10T00:54:12.062Z,6.23
2023-04-10T00:56:40.989Z,5.64
2023-04-10T00:59:10.300Z,5.65
2023-04-10T01:01:37.857Z,5.67
2023-04-10T01:04:05.928Z,5.82
2023-04-10T01:06:48.914Z,6.01
2023-04-10T01:09:27.824Z,6.03
2023-04-10T01:11:59.420Z,6.12
2023-04-10T01:14:38.918Z,6.30
2023-04-10T01:17:11.785Z,6.08
2023-04-10T01:20:07.937Z,5.69
2023-04-10T01:22:37.593Z,5.35
2023-04-10T01:25:29.807Z,5.56
2023-04-10T01:28:12.222Z,5.63
2023-04-10T01:30:42.126Z,5.43
2023-04-10T01:33:13.642Z,5.27
2023-04-10T01:35:44.123Z,5.35
2023-04-10T01:38:13.125Z,5.24
2023-04-10T01:40:42.208Z,5.00
2023-04-10T01:43:12.561Z,4.76
2023-04-10T01:45:43.680Z,4.86
2023-04-10T01:48:11.599Z,5.16
2023-04-10T01:50:39.745Z,5.24
2023-04-10T01:53:08.251Z,5.18
2023-04-10T01:55:38.153Z,4.69
2023-04-10T01:58:06.000Z,5.01
2023-04-10T02:00:39.295Z,5.20
2023-04-10T02:03:08.702Z,4.93
2023-04-10T02:05:46.079Z,4.99
2023-04-10T02:08:18.646Z,4.97
2023-04-10T02:10:52.854Z,4.89
2023-04-10T02:13:22.642Z,4.70
2023-04-10T02:15:52.527Z,4.72
2023-04-10T02:18:23.669Z,4.81
2023-04-10T02:20:52.627Z,4.34
2023-04-10T02:23:21.502Z,4.19
2023-04-10T02:25:48.997Z,4.38
2023-04-10T02:28:16.482Z,4.56
2023-04-10T02:30:43.936Z,4.56
2023-04-10T02:33:11.466Z,4.32
2023-04-10T02:35:40.250Z,4.35
2023-04-10T02:38:07.969Z,4.48
2023-04-10T02:40:36.216Z,4.31
2023-04-10T02:43:03.658Z,4.24
2023-04-10T02:45:33.129Z,4.19
2023-04-10T02:48:00.746Z,3.94
2023-04-10T02:50:29.695Z,4.14
2023-04-10T02:52:58.748Z,4.17
2023-04-10T02:55:26.224Z,4.21
2023-04-10T02:57:53.661Z,4.12
2023-04-10T03:00:21.352Z,3.96
2023-04-10T03:02:49.026Z,3.91
2023-04-10T03:05:16.700Z,3.60
2023-04-10T03:07:44.159Z,3.11
2023-04-10T03:10:12.988Z,3.59
2023-04-10T03:12:40.457Z,3.55
2023-04-10T03:15:09.096Z,3.80
2023-04-10T03:17:36.592Z,3.98
2023-04-10T03:20:04.252Z,3.95
2023-04-10T03:22:33.132Z,3.77
2023-04-10T03:25:01.246Z,3.49
2023-04-10T03:27:32.128Z,3.30
2023-04-10T03:29:59.602Z,3.74
2023-04-10T03:32:28.089Z,3.78
2023-04-10T03:34:55.710Z,3.76
2023-04-10T03:37:23.266Z,3.90
2023-04-10T03:39:50.750Z,3.70
2023-04-10T03:42:18.238Z,3.60
2023-04-10T03:44:47.025Z,3.49
2023-04-10T03:47:14.542Z,3.61
2023-04-10T03:49:42.024Z,3.75
2023-04-10T03:52:09.516Z,3.72
2023-04-10T03:54:36.989Z,3.69
2023-04-10T03:57:04.498Z,3.76
2023-04-10T03:59:38.680Z,3.72
2023-04-10T04:02:08.814Z,3.57
2023-04-10T04:04:36.704Z,3.40
2023-04-10T04:07:04.277Z,3.38
2023-04-10T04:09:31.863Z,3.36
2023-04-10T04:11:59.356Z,3.45
2023-04-10T04:14:26.808Z,3.51
2023-04-10T04:16:54.315Z,3.48
2023-04-10T04:19:23.163Z,3.45
2023-04-10T04:21:50.685Z,3.43
2023-04-10T04:24:18.157Z,3.40
2023-04-10T04:26:45.607Z,3.45
2023-04-10T04:29:13.043Z,3.48
2023-04-10T04:31:40.552Z,3.49
2023-04-10T04:34:08.050Z,3.37
2023-04-10T04:36:36.842Z,3.51
2023-04-10T04:39:04.386Z,3.54
2023-04-10T04:41:32.566Z,3.38
2023-04-10T04:44:01.090Z,3.48
2023-04-10T04:46:28.763Z,2.92
2023-04-10T04:48:56.309Z,3.17
2023-04-10T04:51:23.977Z,2.76
2023-04-10T04:53:53.186Z,3.11
2023-04-10T04:56:20.930Z,3.71
2023-04-10T04:58:48.392Z,3.92
2023-04-10T05:01:16.032Z,4.04
2023-04-10T05:03:43.690Z,4.18
2023-04-10T05:06:11.770Z,4.37
2023-04-10T05:08:39.291Z,4.42
2023-04-10T05:11:08.309Z,4.58
2023-04-10T05:13:35.842Z,4.65
2023-04-10T05:16:03.335Z,4.76
2023-04-10T05:18:31.111Z,4.89
2023-04-10T05:20:58.630Z,4.88
2023-04-10T05:23:26.158Z,5.06
2023-04-10T05:25:53.617Z,5.19
2023-04-10T05:28:23.267Z,5.23
2023-04-10T05:30:50.734Z,5.37
2023-04-10T05:33:18.238Z,6.12
2023-04-10T05:35:47.219Z,6.85
2023-04-10T05:38:14.697Z,7.62
2023-04-10T05:40:45.790Z,8.94
2023-04-10T05:43:13.550Z,10.07
2023-04-10T05:45:44.932Z,11.00
2023-04-10T05:48:12.409Z,11.87
2023-04-10T05:50:39.878Z,12.42
2023-04-10T05:53:07.360Z,13.24
2023-04-10T05:55:34.824Z,14.29
2023-04-10T05:58:02.312Z,15.21
2023-04-10T06:00:29.915Z,15.54
2023-04-10T06:02:59.040Z,16.00
2023-04-10T06:05:26.647Z,16.57
2023-04-10T06:07:55.251Z,17.30
2023-04-10T06:10:24.418Z,18.12
2023-04-10T06:12:51.927Z,19.08
2023-04-10T06:15:19.499Z,20.07
2023-04-10T06:17:47.008Z,21.17
2023-04-10T06:20:15.858Z,22.22
2023-04-10T06:22:43.312Z,23.23
2023-04-10T06:25:11.190Z,24.04
2023-04-10T06:27:38.882Z,24.68
2023-04-10T06:30:07.851Z,24.04
2023-04-10T06:32:35.320Z,23.55
2023-04-10T06:35:02.816Z,22.88
2023-04-10T06:37:32.695Z,22.34
2023-04-10T06:40:05.867Z,22.02
2023-04-10T06:42:33.349Z,20.87
2023-04-10T06:45:01.411Z,20.30
2023-04-10T06:47:29.192Z,20.58
2023-04-10T06:49:56.698Z,19.63
2023-04-10T06:52:24.255Z,19.27
2023-04-10T06:54:53.198Z,18.88
2023-04-10T06:57:21.235Z,18.74
2023-04-10T06:59:48.797Z,19.57
2023-04-10T07:02:16.356Z,19.06
2023-04-10T07:04:43.842Z,19.57
2023-04-10T07:07:13.258Z,19.42
2023-04-10T07:09:41.189Z,18.78
2023-04-10T07:12:09.993Z,18.63
2023-04-10T07:14:37.483Z,19.71
2023-04-10T07:17:04.942Z,20.17
2023-04-10T07:19:32.462Z,20.06
2023-04-10T07:22:00.588Z,20.22
2023-04-10T07:24:28.349Z,19.74
2023-04-10T07:26:57.185Z,19.41
2023-04-10T07:29:26.136Z,19.37
2023-04-10T07:31:53.685Z,19.55
2023-04-10T07:34:21.189Z,20.06
2023-04-10T07:36:48.659Z,20.62
2023-04-10T07:39:16.148Z,20.97
2023-04-10T07:41:44.002Z,20.96
2023-04-10T07:44:13.058Z,21.08
2023-04-10T07:46:41.989Z,20.72
2023-04-10T07:49:09.480Z,21.12
2023-04-10T07:51:37.067Z,20.22
2023-04-10T07:54:04.720Z,19.83
2023-04-10T07:56:32.210Z,19.90
2023-04-10T07:59:00.781Z,20.20
2023-04-10T08:01:28.651Z,20.19
2023-04-10T08:03:57.663Z,19.97
2023-04-10T08:06:25.794Z,20.35
2023-04-10T08:08:53.555Z,20.40
2023-04-10T08:11:27.424Z,21.53
2023-04-10T08:13:55.789Z,21.85
2023-04-10T08:16:25.075Z,21.97
2023-04-10T08:18:52.969Z,22.02
2023-04-10T08:21:22.516Z,21.21
2023-04-10T08:23:51.584Z,20.06
2023-04-10T08:26:19.563Z,20.06
2023-04-10T08:28:50.033Z,19.99
2023-04-10T08:31:17.787Z,19.27
2023-04-10T08:33:45.563Z,19.57
2023-04-10T08:36:16.936Z,18.87
2023-04-10T08:38:47.202Z,18.47
2023-04-10T08:41:16.357Z,18.34
2023-04-10T08:43:45.762Z,17.53
2023-04-10T08:46:14.290Z,17.78
2023-04-10T08:48:47.773Z,18.35
2023-04-10T08:51:20.491Z,17.66
2023-04-10T08:54:03.504Z,17.32
2023-04-10T08:56:33.590Z,17.13
2023-04-10T08:59:02.964Z,17.14
2023-04-10T09:01:30.644Z,17.64
2023-04-10T09:03:59.767Z,17.59
2023-04-10T09:06:27.689Z,17.61
2023-04-10T09:08:56.476Z,17.66
2023-04-10T09:11:23.923Z,17.70
2023-04-10T09:13:51.365Z,17.56
2023-04-10T09:16:18.803Z,15.86
2023-04-10T09:18:48.380Z,16.19
2023-04-10T09:21:17.334Z,16.05
2023-04-10T09:23:45.932Z,16.12
2023-04-10T09:26:29.555Z,17.45
2023-04-10T09:28:58.738Z,17.97
2023-04-10T09:31:31.691Z,17.27
2023-04-10T09:34:10.114Z,17.61
2023-04-10T09:36:38.228Z,17.44
2023-04-10T09:39:06.790Z,17.65
2023-04-10T09:41:35.852Z,18.48
2023-04-10T09:44:08.301Z,19.23
2023-04-10T09:46:36.089Z,17.88
2023-04-10T09:49:05.212Z,17.60
2023-04-10T09:51:34.591Z,16.95
2023-04-10T09:54:02.418Z,17.30
2023-04-10T09:56:30.406Z,17.45
2023-04-10T09:59:00.610Z,17.87
2023-04-10T10:01:29.988Z,18.18
2023-04-10T10:04:02.132Z,18.12
2023-04-10T10:06:31.609Z,18.41
2023-04-10T10:09:03.061Z,19.78
2023-04-10T10:11:33.504Z,18.17
2023-04-10T10:14:04.628Z,17.02
2023-04-10T10:16:37.949Z,16.94
2023-04-10T10:19:10.499Z,17.35
2023-04-10T10:21:39.445Z,17.83
2023-04-10T10:24:09.863Z,18.62
2023-04-10T10:26:40.019Z,17.49
2023-04-10T10:29:11.033Z,17.90
2023-04-10T10:31:39.178Z,17.73
2023-04-10T10:34:09.062Z,17.66
2023-04-10T10:36:37.188Z,17.94
2023-04-10T10:39:19.161Z,17.84
2023-04-10T10:41:54.210Z,18.18
2023-04-10T10:44:30.865Z,18.31
2023-04-10T10:47:07.368Z,18.28
2023-04-10T10:49:55.372Z,18.37
2023-04-10T10:52:39.454Z,18.77
2023-04-10T10:55:31.428Z,18.30
2023-04-10T10:58:01.697Z,18.98
2023-04-10T11:01:02.561Z,18.52
2023-04-10T11:03:31.544Z,18.48
2023-04-10T11:06:02.247Z,19.14
2023-04-10T11:08:43.338Z,19.14
2023-04-10T11:11:15.689Z,18.60
2023-04-10T11:14:12.110Z,18.81
2023-04-10T11:16:44.619Z,18.32
2023-04-10T11:19:15.796Z,17.88
2023-04-10T11:22:04.507Z,17.24
2023-04-10T11:24:57.429Z,17.27
2023-04-10T11:27:48.316Z,17.67
2023-04-10T11:30:32.804Z,18.04
2023-04-10T11:33:01.371Z,18.49
2023-04-10T11:35:31.473Z,18.45
2023-04-10T11:38:17.135Z,18.12
2023-04-10T11:41:06.661Z,17.76
2023-04-10T11:43:35.210Z,18.20
2023-04-10T11:46:08.554Z,18.43
2023-04-10T11:48:37.811Z,19.07
2023-04-10T11:51:14.669Z,19.77
2023-04-10T11:53:42.887Z,20.24
2023-04-10T11:56:17.807Z,20.44
2023-04-10T11:58:45.673Z,19.93
2023-04-10T12:01:14.560Z,18.40
2023-04-10T12:03:43.636Z,16.98
2023-04-10T12:06:13.837Z,16.77
2023-04-10T12:08:43.081Z,17.38
2023-04-10T12:11:11.855Z,17.21
2023-04-10T12:13:40.015Z,16.94
2023-04-10T12:16:09.686Z,15.96
2023-04-10T12:18:37.767Z,16.82
2023-04-10T12:21:08.135Z,17.05
2023-04-10T12:23:39.104Z,17.51
2023-04-10T12:26:10.048Z,18.51
2023-04-10T12:28:38.547Z,18.85
2023-04-10T12:31:07.310Z,19.34
2023-04-10T12:33:34.834Z,20.32
2023-04-10T12:36:02.647Z,20.51
2023-04-10T12:38:38.707Z,19.87
2023-04-10T12:41:07.124Z,19.88
2023-04-10T12:43:36.302Z,19.91
2023-04-10T12:46:04.376Z,20.20
2023-04-10T12:48:31.902Z,20.09
2023-04-10T12:50:59.440Z,21.65
2023-04-10T12:53:28.012Z,22.69
2023-04-10T12:56:02.727Z,22.50
2023-04-10T12:58:31.279Z,21.98
2023-04-10T13:01:00.744Z,21.63
2023-04-10T13:03:28.376Z,20.78
2023-04-10T13:05:56.196Z,20.45
2023-04-10T13:08:23.833Z,20.70
2023-04-10T13:10:51.497Z,20.65
2023-04-10T13:13:20.303Z,20.78
2023-04-10T13:15:47.844Z,21.45
2023-04-10T13:18:15.372Z,21.34
2023-04-10T13:20:43.046Z,20.49
2023-04-10T13:23:10.734Z,19.94
2023-04-10T13:25:40.633Z,19.83
2023-04-10T13:28:11.438Z,20.43
2023-04-10T13:30:41.971Z,19.68
2023-04-10T13:33:09.851Z,19.89
2023-04-10T13:35:37.512Z,20.00
2023-04-10T13:38:05.114Z,20.52
2023-04-10T13:40:33.244Z,19.83
2023-04-10T13:43:00.719Z,19.38
2023-04-10T13:45:28.543Z,19.16
2023-04-10T13:47:57.378Z,19.76
2023-04-10T13:50:24.975Z,20.15
2023-04-10T13:52:53.721Z,20.53
2023-04-10T13:55:21.375Z,20.18
2023-04-10T13:57:48.883Z,19.10
2023-04-10T14:00:17.161Z,19.46
2023-04-10T14:02:44.976Z,19.56
2023-04-10T14:05:13.932Z,19.29
2023-04-10T14:07:41.424Z,19.15
2023-04-10T14:10:10.034Z,18.98
2023-04-10T14:12:38.045Z,19.17
2023-04-10T14:15:06.608Z,19.78
2023-04-10T14:17:34.768Z,19.33
2023-04-10T14:20:02.333Z,19.40
2023-04-10T14:22:31.679Z,19.36
2023-04-10T14:25:11.912Z,18.82
2023-04-10T14:27:40.343Z,19.45
2023-04-10T14:30:09.236Z,19.07
2023-04-10T14:32:37.010Z,19.11
2023-04-10T14:35:04.742Z,19.14
2023-04-10T14:37:33.566Z,19.25
2023-04-10T14:40:01.145Z,19.44
2023-04-10T14:42:28.909Z,19.98
2023-04-10T14:44:58.713Z,20.05
2023-04-10T14:47:26.248Z,18.98
2023-04-10T14:49:53.737Z,18.55
2023-04-10T14:52:21.193Z,18.86
2023-04-10T14:54:49.981Z,18.74
2023-04-10T14:57:17.464Z,18.52
2023-04-10T14:59:45.238Z,18.05
2023-04-10T15:02:12.726Z,18.25
2023-04-10T15:04:40.353Z,18.45
2023-04-10T15:07:07.847Z,18.40
2023-04-10T15:09:35.306Z,18.87
2023-04-10T15:12:04.294Z,19.08
2023-04-10T15:14:32.039Z,19.08
2023-04-10T15:16:59.891Z,19.11
2023-04-10T15:19:27.424Z,19.02
2023-04-10T15:21:55.604Z,18.32
2023-04-10T15:24:23.087Z,18.28
2023-04-10T15:26:50.542Z,18.36
2023-04-10T15:29:19.430Z,18.37
2023-04-10T15:31:46.887Z,18.36
2023-04-10T15:34:14.351Z,18.27
2023-04-10T15:36:41.789Z,18.09
2023-04-10T15:39:09.442Z,17.63
2023-04-10T15:41:36.900Z,17.52
2023-04-10T15:44:04.415Z,17.27
2023-04-10T15:46:34.045Z,16.74
2023-04-10T15:49:01.688Z,17.07
2023-04-10T15:51:29.188Z,16.68
2023-04-10T15:53:56.825Z,17.31
2023-04-10T15:56:24.466Z,16.54
2023-04-10T15:58:51.937Z,15.75
2023-04-10T16:01:19.435Z,15.75
2023-04-10T16:03:49.266Z,15.77
2023-04-10T16:06:17.097Z,15.55
2023-04-10T16:08:44.660Z,15.58
2023-04-10T16:11:12.106Z,15.30
2023-04-10T16:13:42.250Z,15.36
2023-04-10T16:16:15.043Z,15.05
2023-04-10T16:18:44.689Z,15.02
2023-04-10T16:21:14.191Z,15.02
2023-04-10T16:23:41.676Z,14.98
2023-04-10T16:26:09.151Z,14.71
2023-04-10T16:28:36.616Z,14.71
2023-04-10T16:31:04.184Z,14.53
2023-04-10T16:33:31.714Z,14.74
2023-04-10T16:35:59.219Z,14.42
2023-04-10T16:38:28.081Z,14.41
2023-04-10T16:40:55.546Z,14.46
2023-04-10T16:43:23.797Z,14.28
2023-04-10T16:45:55.666Z,14.31
2023-04-10T16:48:23.367Z,14.03
2023-04-10T16:50:50.873Z,14.21
2023-04-10T16:53:18.880Z,14.09
2023-04-10T16:55:47.847Z,13.97
2023-04-10T16:58:15.309Z,13.92
2023-04-10T17:00:42.770Z,14.06
2023-04-10T17:03:10.421Z,14.12
2023-04-10T17:05:38.213Z,14.06
2023-04-10T17:08:06.402Z,13.72
2023-04-10T17:10:33.912Z,13.62
2023-04-10T17:13:02.811Z,13.36
2023-04-10T17:15:30.436Z,13.22
2023-04-10T17:17:57.944Z,13.04
2023-04-10T17:20:25.577Z,13.12
2023-04-10T17:22:53.036Z,13.34
2023-04-10T17:25:20.486Z,13.23
2023-04-10T17:27:47.943Z,13.00
2023-04-10T17:30:16.874Z,13.03
2023-04-10T17:32:44.341Z,12.73
2023-04-10T17:35:11.839Z,12.64
2023-04-10T17:37:39.269Z,12.63
2023-04-10T17:40:08.226Z,12.42
2023-04-10T17:42:35.719Z,12.63
2023-04-10T17:45:03.311Z,12.56
2023-04-10T17:47:32.725Z,12.55
2023-04-10T17:50:00.269Z,12.50
2023-04-10T17:52:27.781Z,12.41
2023-04-10T17:54:55.461Z,12.34
2023-04-10T17:57:23.066Z,12.21
2023-04-10T17:59:50.644Z,12.17
2023-04-10T18:02:18.196Z,12.33
2023-04-10T18:04:47.092Z,12.46
2023-04-10T18:07:14.554Z,12.80
2023-04-10T18:09:42.519Z,12.53
2023-04-10T18:12:10.648Z,12.30
2023-04-10T18:14:38.145Z,11.96
2023-04-10T18:17:05.755Z,12.21
2023-04-10T18:19:33.267Z,12.03
2023-04-10T18:22:02.090Z,12.11
2023-04-10T18:24:29.586Z,12.32
2023-04-10T18:26:57.167Z,12.07
2023-04-10T18:29:26.191Z,11.96
2023-04-10T18:31:53.638Z,12.07
2023-04-10T18:34:21.112Z,12.24
2023-04-10T18:36:48.587Z,12.28
2023-04-10T18:39:17.380Z,12.15
2023-04-10T18:41:44.845Z,12.08
2023-04-10T18:44:12.294Z,12.00
2023-04-10T18:46:42.642Z,11.80
2023-04-10T18:49:11.777Z,11.71
2023-04-10T18:51:40.788Z,11.76
2023-04-10T18:54:08.490Z,11.57
2023-04-10T18:56:38.193Z,11.70
2023-04-10T18:59:05.894Z,11.65
2023-04-10T19:01:33.807Z,11.69
2023-04-10T19:04:01.854Z,11.73
2023-04-10T19:06:30.227Z,11.84
2023-04-10T19:08:57.716Z,12.01
2023-04-10T19:11:25.444Z,11.65
2023-04-10T19:13:54.609Z,11.58
2023-04-10T19:16:22.573Z,11.26
2023-04-10T19:18:50.401Z,11.08
2023-04-10T19:21:17.875Z,11.08
2023-04-10T19:23:46.363Z,10.83
2023-04-10T19:26:13.857Z,10.79
2023-04-10T19:28:41.358Z,10.68
2023-04-10T19:31:10.336Z,10.67
2023-04-10T19:33:37.839Z,10.67
2023-04-10T19:36:08.046Z,10.58
2023-04-10T19:38:35.896Z,10.55
2023-04-10T19:41:03.363Z,10.50
2023-04-10T19:43:30.988Z,10.41
2023-04-10T19:45:59.829Z,10.55
2023-04-10T19:48:28.683Z,10.45
2023-04-10T19:50:56.166Z,10.50
2023-04-10T19:53:23.664Z,11.01
2023-04-10T19:55:51.125Z,10.47
2023-04-10T19:58:39.012Z,10.61
2023-04-10T20:01:08.485Z,10.63
2023-04-10T20:03:38.515Z,10.76
2023-04-10T20:06:08.188Z,10.85
2023-04-10T20:08:35.698Z,10.69
2023-04-10T20:11:06.526Z,10.64
2023-04-10T20:13:34.668Z,10.35
2023-04-10T20:16:02.744Z,10.35
2023-04-10T20:18:32.086Z,10.50
2023-04-10T20:21:00.979Z,10.36
2023-04-10T20:23:28.477Z,10.21
2023-04-10T20:25:55.979Z,10.13
2023-04-10T20:28:23.441Z,10.38
2023-04-10T20:30:50.944Z,10.43
2023-04-10T20:33:18.425Z,10.25
2023-04-10T20:35:45.909Z,10.08
2023-04-10T20:38:14.728Z,10.24
2023-04-10T20:40:42.228Z,10.47
2023-04-10T20:43:11.991Z,10.38
2023-04-10T20:45:39.972Z,10.24
2023-04-10T20:48:07.919Z,10.48
2023-04-10T20:50:36.854Z,10.43
2023-04-10T20:53:04.577Z,10.41
2023-04-10T20:55:33.858Z,10.46
2023-04-10T20:58:01.317Z,10.61
2023-04-10T21:00:30.760Z,10.29
2023-04-10T21:02:58.545Z,10.59
2023-04-10T21:05:26.289Z,10.41
2023-04-10T21:07:54.254Z,10.53
2023-04-10T21:10:21.964Z,10.33
2023-04-10T21:12:50.800Z,10.40
2023-04-10T21:15:18.301Z,10.34
2023-04-10T21:17:45.811Z,10.51
2023-04-10T21:20:13.322Z,10.41
2023-04-10T21:22:40.784Z,10.54
2023-04-10T21:25:09.193Z,10.46
2023-04-10T21:27:36.719Z,10.44
2023-04-10T21:30:06.497Z,10.53
2023-04-10T21:32:33.978Z,10.46
2023-04-10T21:35:01.705Z,10.24
2023-04-10T21:37:29.167Z,10.21
2023-04-10T21:39:56.609Z,10.30
2023-04-10T21:42:24.137Z,10.11
2023-04-10T21:44:51.599Z,9.93
2023-04-10T21:47:20.399Z,10.06
2023-04-10T21:49:47.880Z,10.20
2023-04-10T21:52:15.347Z,10.10
2023-04-10T21:54:42.807Z,9.95
2023-04-10T21:57:10.238Z,9.88
2023-04-10T21:59:37.977Z,10.24
2023-04-10T22:02:05.555Z,10.08
2023-04-10T22:04:34.689Z,10.09
2023-04-10T22:07:05.513Z,10.13
2023-04-10T22:09:33.080Z,9.90
2023-04-10T22:12:00.710Z,9.91
2023-04-10T22:14:28.189Z,9.78
2023-04-10T22:16:56.587Z,9.80
2023-04-10T22:19:25.638Z,9.81
2023-04-10T22:21:54.496Z,9.67
2023-04-10T22:24:21.953Z,9.45
2023-04-10T22:26:49.446Z,9.67
2023-04-10T22:29:16.970Z,9.73
2023-04-10T22:31:45.126Z,9.70
2023-04-10T22:34:12.628Z,9.99
2023-04-10T22:36:41.506Z,10.02
2023-04-10T22:39:10.309Z,10.05
2023-04-10T22:41:37.800Z,10.07
2023-04-10T22:44:07.320Z,10.01
2023-04-10T22:46:35.043Z,10.02
2023-04-10T22:49:02.570Z,10.07
2023-04-10T22:51:30.063Z,10.15
2023-04-10T22:53:57.617Z,10.34
2023-04-10T22:56:28.645Z,10.06
2023-04-10T22:58:56.672Z,10.17
2023-04-10T23:01:24.350Z,10.25
2023-04-10T23:03:53.713Z,10.17
2023-04-10T23:06:21.393Z,10.33
2023-04-10T23:08:48.906Z,10.43
2023-04-10T23:11:16.385Z,10.19
2023-04-10T23:13:45.409Z,9.90
2023-04-10T23:16:12.887Z,10.00
2023-04-10T23:18:40.397Z,9.82
2023-04-10T23:21:08.434Z,9.58
2023-04-10T23:23:35.922Z,9.42
2023-04-10T23:26:03.494Z,9.20
2023-04-10T23:28:30.949Z,9.39
2023-04-10T23:30:59.777Z,9.50
2023-04-10T23:33:27.283Z,9.27
2023-04-10T23:35:54.761Z,9.22
2023-04-10T23:38:22.283Z,9.19
2023-04-10T23:40:49.761Z,9.14
2023-04-10T23:43:17.278Z,9.22
2023-04-10T23:45:44.743Z,9.10
2023-04-10T23:48:13.609Z,9.29
2023-04-10T23:50:41.103Z,9.20
2023-04-10T23:53:09.136Z,9.14
2023-04-10T23:55:36.828Z,9.13
2023-04-10T23:58:04.303Z,8.91
